Airfield :
LOGIN :

Register | Disclaimer

   EN    FR    IT 

 










Legend :    VFR   Marginal VFR   IFR   Intensive IFR   Very Intensive IFR
Visi :
Ceiling :
>= 8 km
>= 3000ft
5 to 8 km
1000 to 3000 ft
1500m to 5 km
500 to 1000 ft
800 to 1500m
200 to 500 ft
< 800m
< 200 ft
Symbols :   Thunderstorms  Fog  Heavy snow  Heavy precipitations  Wind > 20 kt
SIGMETs :     Misc.  Thunderstorms  Icing  Turbulence  Mountain Waves  Volcanic Ashes






- Airport Elevation : 160 ft
- IATA code : LRT


LFRH - Lorient Lann Bihoue

CURRENT METAR :
  • 011400Z AUTO 06014KT CAVOK 10/05 Q1025 NOSIG

EXPIRED METARs :
  • 011330Z AUTO 05011KT CAVOK 10/05 Q1025 NOSIG
  • 011300Z AUTO 05010KT CAVOK 10/06 Q1026 TEMPO BKN008
  • 011230Z AUTO 05008KT CAVOK 09/05 Q1026 TEMPO BKN008
  • 011200Z AUTO 05010KT CAVOK 09/05 Q1026 TEMPO BKN008
  • 011130Z AUTO 04009KT 9999 FEW013 08/05 Q1027 TEMPO BKN008

TAF AMD TAF LFRH
Valid from the 01 at 13:00 until the 02 at 12:00 UTC


011318Z 0113/0212 06010KT CAVOK
TEMPO 0202/0206 BKN008
TEMPO 0206/0210 BKN010
BECMG 0210/0212 CAVOK



MET'MAP, your aeronautical weather chart ! - Copyright ORBIFLY December 2007 - Disclaimer

ORBIFLY MET'MAP TEAM :

Programming & Development : Alexandra Zaïnal
Original concept : Baudouin d'Aumeries
Technical & hardware support : Manuel Goepfert
Assistance : Marc-Olivier Méhu




SOURCES & CREDITS :

   NOAA